Time;durP1;ratioP1;P1;durP2;ratioP2;P2;SDS_P1;SDS_P2;PMS_P1;PMS_P2;Temp;Humidity;BMP_temperature;BMP_pressure;BME280_temperature;BME280_humidity;BME280_pressure;Samples;Min_cycle;Max_cycle;Signal;HPM_P1;HPM_P2
2021/07/11 00:00:48;;;;;;;9.10;8.10;;;23.50;83.90;;;;;;5084169;28;20040;-89
2021/07/11 00:03:14;;;;;;;10.18;7.90;;;23.50;84.30;;;;;;5085966;28;20480;-90
2021/07/11 00:05:40;;;;;;;9.20;7.95;;;23.40;84.60;;;;;;5084416;28;20551;-90
2021/07/11 00:08:05;;;;;;;8.48;7.68;;;23.40;85.00;;;;;;5082558;28;20039;-90
2021/07/11 00:10:31;;;;;;;8.52;7.63;;;23.40;85.30;;;;;;5103039;28;20092;-90
2021/07/11 00:12:57;;;;;;;10.25;7.65;;;23.40;85.80;;;;;;5083346;28;20064;-89
2021/07/11 00:15:24;;;;;;;9.73;8.35;;;23.40;86.10;;;;;;5085356;28;20040;-90
2021/07/11 00:17:54;;;;;;;8.98;8.02;;;23.30;86.40;;;;;;5085853;28;20032;-90
2021/07/11 00:20:22;;;;;;;9.27;8.23;;;23.30;86.80;;;;;;5083401;28;20106;-90
2021/07/11 00:22:47;;;;;;;9.45;8.45;;;23.30;87.50;;;;;;5102878;28;20028;-89
2021/07/11 00:25:14;;;;;;;10.57;8.50;;;23.20;87.90;;;;;;5083396;28;20097;-90
2021/07/11 00:27:45;;;;;;;10.57;8.48;;;23.20;88.50;;;;;;5081708;28;20047;-90
2021/07/11 00:30:12;;;;;;;11.07;8.38;;;23.20;88.80;;;;;;5084279;28;20040;-90
2021/07/11 00:32:38;;;;;;;9.75;8.75;;;23.10;89.20;;;;;;5083980;28;20489;-90
2021/07/11 00:35:04;;;;;;;8.98;8.07;;;23.10;89.80;;;;;;5085181;28;20040;-89
2021/07/11 00:37:30;;;;;;;9.25;8.32;;;23.10;90.10;;;;;;5085197;28;20049;-90
2021/07/11 00:39:55;;;;;;;9.60;8.38;;;23.00;90.30;;;;;;5086076;28;20107;-89
2021/07/11 00:42:21;;;;;;;9.07;8.18;;;23.00;90.50;;;;;;5086266;28;20032;-89
2021/07/11 00:44:47;;;;;;;9.07;8.18;;;23.00;90.60;;;;;;5082872;28;20036;-90
2021/07/11 00:47:13;;;;;;;9.43;8.45;;;23.00;90.60;;;;;;5085869;28;20124;-90
2021/07/11 00:49:43;;;;;;;10.43;8.27;;;23.00;90.70;;;;;;5083933;28;20087;-90
2021/07/11 00:52:13;;;;;;;9.68;8.68;;;23.00;90.90;;;;;;5087831;28;20036;-89
2021/07/11 00:54:39;;;;;;;8.85;7.95;;;23.00;91.30;;;;;;5085008;28;20047;-89
2021/07/11 00:57:06;;;;;;;10.48;8.38;;;23.00;91.00;;;;;;5087542;28;20123;-90
2021/07/11 00:59:33;;;;;;;9.45;8.38;;;23.00;91.20;;;;;;5086697;28;20048;-89
2021/07/11 01:02:18;;;;;;;8.93;7.70;;;23.00;91.20;;;;;;5086880;28;20032;-89
2021/07/11 01:05:05;;;;;;;9.02;8.00;;;22.90;91.50;;;;;;5102089;28;20067;-89
2021/07/11 01:07:59;;;;;;;9.82;8.75;;;22.90;91.40;;;;;;5081615;28;20493;-89
2021/07/11 01:10:48;;;;;;;9.50;8.50;;;22.90;91.40;;;;;;5080595;28;20168;-89
2021/07/11 01:13:17;;;;;;;9.40;8.20;;;22.90;91.80;;;;;;5081277;28;20062;-90
2021/07/11 01:15:46;;;;;;;13.73;8.45;;;22.90;91.50;;;;;;5103398;28;20080;-90
2021/07/11 01:18:13;;;;;;;12.32;8.75;;;22.80;91.70;;;;;;5085393;28;20051;-89
2021/07/11 01:20:47;;;;;;;9.32;8.38;;;22.80;92.00;;;;;;5088396;28;20058;-89
2021/07/11 01:23:44;;;;;;;9.00;7.53;;;22.80;92.30;;;;;;5088225;28;20029;-89
2021/07/11 01:26:12;;;;;;;10.02;8.73;;;22.80;92.60;;;;;;5094610;28;20032;-89
2021/07/11 01:28:39;;;;;;;11.68;8.00;;;22.70;92.50;;;;;;5087227;28;20039;-89
2021/07/11 01:31:06;;;;;;;9.43;8.43;;;22.70;92.70;;;;;;5087583;28;20028;-90
2021/07/11 01:33:36;;;;;;;8.98;8.05;;;22.70;92.70;;;;;;5086959;28;20036;-89
2021/07/11 01:36:03;;;;;;;9.15;8.18;;;22.70;92.90;;;;;;5087925;28;20439;-89
2021/07/11 01:38:29;;;;;;;9.77;8.35;;;22.70;93.00;;;;;;5084093;28;20044;-90
2021/07/11 01:40:56;;;;;;;10.57;8.18;;;22.60;93.20;;;;;;5087014;28;20036;-90
2021/07/11 01:43:23;;;;;;;9.65;8.65;;;22.60;93.30;;;;;;5088050;28;20032;-89
2021/07/11 01:45:51;;;;;;;10.07;8.95;;;22.60;93.50;;;;;;5087338;28;20036;-89
2021/07/11 01:48:18;;;;;;;9.13;8.20;;;22.50;93.70;;;;;;5089153;28;20032;-89
2021/07/11 01:50:47;;;;;;;9.77;8.77;;;22.50;93.90;;;;;;5089114;28;20033;-89
2021/07/11 01:53:13;;;;;;;9.18;8.18;;;22.50;94.10;;;;;;5086813;28;20032;-89
2021/07/11 01:55:39;;;;;;;10.50;8.55;;;22.50;94.10;;;;;;5086537;28;20065;-90
2021/07/11 01:58:05;;;;;;;8.98;8.07;;;22.40;94.30;;;;;;5087541;28;20050;-89
2021/07/11 02:00:31;;;;;;;9.50;8.50;;;22.50;94.60;;;;;;5086703;28;20044;-89
2021/07/11 02:02:57;;;;;;;10.18;8.52;;;22.40;94.80;;;;;;5087471;28;20091;-89
2021/07/11 02:05:23;;;;;;;9.80;8.80;;;22.40;95.00;;;;;;5085948;28;20126;-89
2021/07/11 02:07:49;;;;;;;9.50;8.23;;;22.40;95.20;;;;;;5083177;28;20094;-90
2021/07/11 02:10:16;;;;;;;9.50;8.50;;;22.40;95.50;;;;;;5083555;28;20036;-89
2021/07/11 02:13:00;;;;;;;15.73;9.60;;;22.30;95.70;;;;;;5085258;28;20063;-89
2021/07/11 02:15:29;;;;;;;8.75;7.95;;;22.40;96.20;;;;;;5091276;28;20036;-89
2021/07/11 02:17:56;;;;;;;13.07;8.90;;;22.40;96.00;;;;;;5092152;28;20032;-89
2021/07/11 02:20:23;;;;;;;9.65;8.60;;;22.40;96.20;;;;;;5091846;28;20044;-90
2021/07/11 02:22:50;;;;;;;9.52;8.60;;;22.40;96.40;;;;;;5090614;28;20036;-90
2021/07/11 02:25:18;;;;;;;9.98;8.98;;;22.40;96.50;;;;;;5090614;28;20598;-89
2021/07/11 02:27:47;;;;;;;9.85;8.50;;;22.40;96.50;;;;;;5087783;28;20152;-90
2021/07/11 02:30:25;;;;;;;9.65;8.70;;;22.40;96.60;;;;;;5087854;28;20389;-90
2021/07/11 02:32:53;;;;;;;10.80;8.88;;;22.50;96.70;;;;;;5105718;28;20051;-90
2021/07/11 02:35:30;;;;;;;9.13;8.27;;;22.50;96.60;;;;;;5087479;28;20040;-90
2021/07/11 02:37:58;;;;;;;10.52;8.57;;;22.60;96.40;;;;;;5086576;28;20036;-90
2021/07/11 02:40:24;;;;;;;9.90;8.93;;;22.60;96.20;;;;;;5086807;28;20048;-90
2021/07/11 02:42:53;;;;;;;9.13;8.18;;;22.60;96.20;;;;;;5086476;28;20025;-90
2021/07/11 02:45:19;;;;;;;10.35;8.65;;;22.70;96.20;;;;;;5086390;28;20039;-90
2021/07/11 02:47:46;;;;;;;9.55;8.05;;;22.70;96.10;;;;;;5085341;28;20345;-90
2021/07/11 02:50:15;;;;;;;9.90;8.85;;;22.70;96.00;;;;;;5085931;28;20032;-90
2021/07/11 02:52:43;;;;;;;9.73;8.70;;;22.80;96.10;;;;;;5087593;28;20064;-90
2021/07/11 02:55:21;;;;;;;10.77;8.00;;;22.80;95.90;;;;;;5088926;28;20036;-90
2021/07/11 02:57:54;;;;;;;10.13;8.45;;;22.80;96.00;;;;;;5084874;28;20036;-90
2021/07/11 03:00:20;;;;;;;10.25;8.48;;;22.90;95.60;;;;;;5087583;28;20074;-90
2021/07/11 03:02:47;;;;;;;9.43;8.23;;;22.90;95.50;;;;;;5085833;28;20039;-90
2021/07/11 03:05:18;;;;;;;9.70;8.70;;;22.90;95.30;;;;;;5083398;28;20036;-90
2021/07/11 03:07:44;;;;;;;11.10;9.13;;;23.00;95.10;;;;;;5082976;28;20046;-90
2021/07/11 03:10:11;;;;;;;9.73;8.05;;;23.00;95.00;;;;;;5081491;28;20552;-90
2021/07/11 03:12:37;;;;;;;9.07;8.15;;;23.10;94.80;;;;;;5097851;28;20039;-91
2021/07/11 03:15:04;;;;;;;8.82;7.93;;;23.20;94.60;;;;;;5082956;28;20468;-90
2021/07/11 03:17:30;;;;;;;9.68;7.50;;;23.20;94.30;;;;;;5081324;28;20038;-91
2021/07/11 03:19:57;;;;;;;10.43;8.18;;;23.30;94.00;;;;;;5081672;28;20062;-90
2021/07/11 03:22:36;;;;;;;9.52;8.05;;;23.40;93.70;;;;;;5082023;28;20084;-91
2021/07/11 03:25:06;;;;;;;11.40;8.15;;;23.50;93.20;;;;;;5101020;28;20122;-90
2021/07/11 03:27:32;;;;;;;8.82;7.30;;;23.60;92.90;;;;;;5082037;28;20024;-91
2021/07/11 03:30:08;;;;;;;8.20;7.38;;;23.70;92.20;;;;;;5083283;28;20040;-91
2021/07/11 03:32:54;;;;;;;8.85;7.07;;;23.80;91.80;;;;;;5085183;28;20400;-90
2021/07/11 03:35:28;;;;;;;9.43;7.22;;;23.80;91.30;;;;;;5082376;28;20093;-90
2021/07/11 03:37:56;;;;;;;7.97;7.10;;;24.00;90.90;;;;;;5087265;28;20052;-90
2021/07/11 03:40:26;;;;;;;8.90;7.25;;;24.00;90.40;;;;;;5085294;28;20142;-90
2021/07/11 03:42:54;;;;;;;13.27;6.50;;;24.20;89.90;;;;;;5083313;28;20477;-90
2021/07/11 03:45:21;;;;;;;10.75;6.90;;;24.30;88.80;;;;;;5084038;28;20071;-90
2021/07/11 03:47:52;;;;;;;6.85;6.15;;;24.50;87.60;;;;;;5082347;28;20473;-90
2021/07/11 03:50:21;;;;;;;8.63;6.68;;;24.60;86.50;;;;;;5084563;28;20071;-90
2021/07/11 03:52:58;;;;;;;7.90;5.97;;;24.80;85.50;;;;;;5084203;28;20393;-90
2021/07/11 03:55:24;;;;;;;8.38;6.18;;;24.90;84.40;;;;;;5084627;28;20040;-90
2021/07/11 03:57:51;;;;;;;7.43;5.70;;;25.00;83.90;;;;;;5086130;28;20024;-89
2021/07/11 04:00:19;;;;;;;7.22;6.25;;;25.20;83.20;;;;;;5083250;28;20404;-89
2021/07/11 04:02:50;;;;;;;8.77;6.05;;;25.30;82.30;;;;;;5098585;28;20028;-90
2021/07/11 04:05:19;;;;;;;6.68;6.07;;;25.50;81.70;;;;;;5083186;28;20036;-90
2021/07/11 04:07:49;;;;;;;11.32;6.93;;;25.60;81.20;;;;;;5100931;28;20032;-90
2021/07/11 04:10:15;;;;;;;9.48;6.97;;;25.70;80.50;;;;;;5102902;28;20065;-90
2021/07/11 04:12:40;;;;;;;7.97;5.97;;;25.80;79.90;;;;;;5082691;28;20062;-92
2021/07/11 04:15:06;;;;;;;10.70;7.30;;;25.90;79.60;;;;;;5080817;28;20044;-91
2021/07/11 04:17:35;;;;;;;7.15;5.97;;;25.90;79.30;;;;;;5081118;28;20095;-91
2021/07/11 04:20:03;;;;;;;7.75;6.85;;;26.10;79.00;;;;;;5079313;28;20543;-91
2021/07/11 04:22:29;;;;;;;8.80;6.95;;;26.10;78.40;;;;;;5080569;28;20093;-90
2021/07/11 04:24:56;;;;;;;7.82;6.07;;;26.20;78.20;;;;;;5081400;28;20032;-90
2021/07/11 04:27:23;;;;;;;8.02;6.18;;;26.30;77.90;;;;;;5079660;28;20051;-91
2021/07/11 04:29:50;;;;;;;8.52;6.57;;;26.50;77.50;;;;;;5082946;28;20043;-91
2021/07/11 04:32:17;;;;;;;7.78;6.18;;;26.60;76.80;;;;;;5085680;28;20036;-90
2021/07/11 04:34:42;;;;;;;6.18;5.57;;;26.70;76.10;;;;;;5080030;28;20485;-91
2021/07/11 04:37:11;;;;;;;6.75;5.63;;;26.70;75.60;;;;;;5080464;28;20043;-90
2021/07/11 04:39:38;;;;;;;7.82;5.82;;;26.80;75.20;;;;;;5081635;28;20390;-90
2021/07/11 04:42:04;;;;;;;5.85;5.18;;;26.90;74.60;;;;;;5080120;28;20032;-91
2021/07/11 04:44:31;;;;;;;6.47;5.07;;;27.00;74.00;;;;;;5080296;28;20090;-90
2021/07/11 04:46:57;;;;;;;6.00;5.40;;;27.10;73.20;;;;;;5077502;28;20047;-90
2021/07/11 04:49:24;;;;;;;5.80;5.20;;;27.20;72.60;;;;;;5081382;28;20028;-90
2021/07/11 04:51:52;;;;;;;6.55;5.40;;;27.30;72.00;;;;;;5082329;28;20039;-90
2021/07/11 04:54:18;;;;;;;5.63;5.07;;;27.50;71.20;;;;;;5079022;28;20037;-90
2021/07/11 04:56:43;;;;;;;5.60;4.78;;;27.60;70.10;;;;;;5077634;28;20135;-93
2021/07/11 04:59:09;;;;;;;6.25;4.72;;;27.60;69.00;;;;;;5080530;28;20065;-90
2021/07/11 05:01:35;;;;;;;6.40;4.50;;;27.80;68.20;;;;;;5078869;28;20511;-91
2021/07/11 05:04:02;;;;;;;5.35;4.13;;;27.90;67.60;;;;;;5077874;28;20181;-91
2021/07/11 05:06:28;;;;;;;5.45;3.78;;;28.10;66.70;;;;;;5094773;28;20139;-91
2021/07/11 05:08:53;;;;;;;5.25;4.20;;;28.30;66.00;;;;;;5082083;28;20485;-91
2021/07/11 05:11:20;;;;;;;4.65;4.15;;;28.50;65.50;;;;;;5080658;28;20036;-90
2021/07/11 05:13:45;;;;;;;4.63;4.18;;;28.90;65.00;;;;;;5079974;28;20040;-90
2021/07/11 05:16:11;;;;;;;6.55;3.90;;;29.10;64.50;;;;;;5082557;28;20093;-90
2021/07/11 05:18:37;;;;;;;5.88;4.53;;;29.50;64.30;;;;;;5079854;28;20071;-90
2021/07/11 05:21:03;;;;;;;6.43;4.10;;;29.90;64.00;;;;;;5081747;28;20032;-91
2021/07/11 05:23:29;;;;;;;5.18;4.13;;;30.30;63.40;;;;;;5080061;28;20047;-91
2021/07/11 05:25:55;;;;;;;4.45;4.05;;;30.70;63.20;;;;;;5097900;28;20055;-91
2021/07/11 05:28:21;;;;;;;4.03;3.70;;;31.10;62.60;;;;;;5082963;28;20081;-90
2021/07/11 05:30:47;;;;;;;5.70;4.15;;;31.40;61.70;;;;;;5095945;28;20032;-90
2021/07/11 05:33:13;;;;;;;6.55;4.05;;;31.80;60.90;;;;;;5098025;28;20066;-91
2021/07/11 05:35:39;;;;;;;4.05;3.70;;;32.20;60.10;;;;;;5080867;28;20043;-92
2021/07/11 05:38:05;;;;;;;4.63;3.80;;;32.60;59.90;;;;;;5096297;28;20401;-91
2021/07/11 05:40:31;;;;;;;4.20;3.80;;;32.90;59.00;;;;;;5076242;28;20401;-92
2021/07/11 05:42:57;;;;;;;8.80;4.15;;;33.30;58.40;;;;;;5077193;28;20044;-91
2021/07/11 05:45:22;;;;;;;4.22;3.83;;;33.60;58.10;;;;;;5077184;28;20039;-92
2021/07/11 05:47:48;;;;;;;4.55;3.78;;;33.90;57.70;;;;;;5078111;28;20040;-93
2021/07/11 05:50:15;;;;;;;4.88;3.85;;;34.10;57.30;;;;;;5083672;28;20423;-92
2021/07/11 05:52:41;;;;;;;4.28;3.88;;;34.50;57.10;;;;;;5081762;28;20040;-92
2021/07/11 05:55:08;;;;;;;4.13;3.72;;;34.80;56.10;;;;;;5083358;28;20063;-92
2021/07/11 05:57:34;;;;;;;8.40;3.95;;;34.90;55.00;;;;;;5082891;28;20040;-92
2021/07/11 06:00:00;;;;;;;4.70;3.40;;;35.10;54.40;;;;;;5079570;28;20461;-92
2021/07/11 06:02:27;;;;;;;3.90;3.58;;;35.30;54.00;;;;;;5102696;28;20396;-91
2021/07/11 06:04:53;;;;;;;3.85;3.40;;;35.60;53.50;;;;;;5083478;28;20422;-91
2021/07/11 06:07:19;;;;;;;3.67;2.90;;;35.90;52.80;;;;;;5084073;28;20036;-92
2021/07/11 06:09:44;;;;;;;3.83;3.17;;;36.20;51.90;;;;;;5099731;28;20431;-91
2021/07/11 06:12:10;;;;;;;3.80;3.45;;;36.50;51.30;;;;;;5108509;28;20123;-93
2021/07/11 06:14:36;;;;;;;5.40;3.25;;;36.70;50.90;;;;;;5084392;28;20040;-92
2021/07/11 06:17:02;;;;;;;3.80;3.50;;;36.90;50.60;;;;;;5081048;28;20044;-93
2021/07/11 06:19:29;;;;;;;5.07;3.25;;;37.00;50.00;;;;;;5080901;28;20036;-92
2021/07/11 06:21:54;;;;;;;3.90;3.30;;;37.10;50.00;;;;;;5099915;28;20477;-91
2021/07/11 06:24:20;;;;;;;3.85;3.30;;;37.30;49.70;;;;;;5083639;28;20073;-92
2021/07/11 06:26:47;;;;;;;3.70;3.30;;;37.30;49.30;;;;;;5082885;28;20044;-91
2021/07/11 06:29:13;;;;;;;4.03;3.60;;;37.30;48.90;;;;;;5079041;28;20119;-93
2021/07/11 06:31:39;;;;;;;3.92;3.60;;;37.40;48.60;;;;;;5084607;28;20040;-93
2021/07/11 06:34:05;;;;;;;3.72;3.38;;;37.50;48.50;;;;;;5080403;28;20484;-92
2021/07/11 06:36:33;;;;;;;6.25;3.15;;;37.70;48.10;;;;;;5084268;28;20070;-92
2021/07/11 06:39:00;;;;;;;5.60;3.50;;;37.90;47.50;;;;;;5080870;28;20044;-92
2021/07/11 06:41:26;;;;;;;3.60;3.30;;;38.10;46.80;;;;;;5080738;28;20135;-92
2021/07/11 06:43:52;;;;;;;4.45;3.28;;;38.40;46.70;;;;;;5085773;28;20028;-91
2021/07/11 06:46:18;;;;;;;6.90;3.60;;;38.60;46.30;;;;;;5082076;28;20418;-92
2021/07/11 06:48:43;;;;;;;3.38;3.08;;;38.80;46.10;;;;;;5080584;28;20071;-91
2021/07/11 06:51:09;;;;;;;3.10;2.90;;;39.00;45.80;;;;;;5101008;28;20043;-93
2021/07/11 06:53:35;;;;;;;4.05;3.30;;;39.30;45.60;;;;;;5081046;28;20078;-92
2021/07/11 06:56:02;;;;;;;3.72;3.20;;;39.60;45.10;;;;;;5082814;28;20051;-93
2021/07/11 06:58:28;;;;;;;3.47;3.17;;;39.70;44.70;;;;;;5082216;28;20511;-92
2021/07/11 07:00:54;;;;;;;3.15;2.85;;;39.80;44.50;;;;;;5080742;28;20044;-92
2021/07/11 07:03:20;;;;;;;3.35;2.97;;;40.00;44.20;;;;;;5081258;28;20535;-91
2021/07/11 07:05:46;;;;;;;6.57;3.00;;;40.20;43.90;;;;;;5065868;28;20138;-90
2021/07/11 07:08:12;;;;;;;3.03;2.83;;;40.30;43.40;;;;;;5084027;28;20043;-94
2021/07/11 07:10:38;;;;;;;5.97;2.90;;;40.40;43.50;;;;;;5084394;28;20036;-91
2021/07/11 07:13:04;;;;;;;3.45;2.90;;;40.70;44.00;;;;;;5087600;28;20542;-92
2021/07/11 07:15:30;;;;;;;3.25;2.90;;;41.00;43.10;;;;;;5097612;28;20051;-91
2021/07/11 07:17:56;;;;;;;4.57;2.97;;;41.30;42.80;;;;;;5097146;28;20028;-92
2021/07/11 07:20:21;;;;;;;3.38;2.92;;;41.50;42.60;;;;;;5096612;28;20040;-91
2021/07/11 07:22:47;;;;;;;4.75;2.90;;;41.70;42.30;;;;;;5088331;28;20102;-93
2021/07/11 07:25:16;;;;;;;3.20;2.85;;;41.90;42.10;;;;;;5079727;28;20059;-93
2021/07/11 07:27:44;;;;;;;5.57;2.92;;;42.00;41.90;;;;;;5079585;28;20053;-93
2021/07/11 07:30:11;;;;;;;3.60;3.20;;;42.20;41.90;;;;;;5080691;28;20100;-92
2021/07/11 07:32:37;;;;;;;3.65;3.00;;;42.30;41.80;;;;;;5081317;28;20040;-92
2021/07/11 07:35:05;;;;;;;4.47;2.83;;;42.50;41.80;;;;;;5082583;28;20562;-92
2021/07/11 07:37:31;;;;;;;3.08;2.70;;;42.80;41.40;;;;;;5090774;28;20036;-91
2021/07/11 07:39:57;;;;;;;2.95;2.70;;;43.20;40.90;;;;;;5098197;28;20070;-91
2021/07/11 07:42:22;;;;;;;2.85;2.60;;;43.20;40.60;;;;;;5081358;28;20032;-91
2021/07/11 07:44:48;;;;;;;3.40;2.70;;;43.10;40.30;;;;;;5080074;28;20068;-93
2021/07/11 07:47:14;;;;;;;2.72;2.55;;;43.00;40.50;;;;;;5081166;28;20385;-93
2021/07/11 07:49:39;;;;;;;3.20;2.90;;;43.10;40.60;;;;;;5079286;28;20061;-92
2021/07/11 07:52:09;;;;;;;7.63;2.83;;;43.10;40.60;;;;;;5081930;28;20477;-93
2021/07/11 07:54:35;;;;;;;3.30;3.00;;;43.30;40.60;;;;;;5085725;28;20043;-91
2021/07/11 07:57:03;;;;;;;3.42;2.90;;;43.50;40.60;;;;;;5078842;28;20055;-89
2021/07/11 07:59:29;;;;;;;5.55;2.53;;;43.70;40.50;;;;;;5087507;28;20079;-91
2021/07/11 08:01:55;;;;;;;5.05;2.70;;;43.90;40.30;;;;;;5082441;28;20036;-91
2021/07/11 08:04:21;;;;;;;5.95;2.60;;;44.10;39.70;;;;;;5083446;28;20083;-90
2021/07/11 08:06:48;;;;;;;3.20;2.50;;;44.20;38.70;;;;;;5083858;28;20492;-91
2021/07/11 08:09:16;;;;;;;5.38;2.72;;;44.20;38.60;;;;;;5101124;28;20533;-92
2021/07/11 08:11:43;;;;;;;2.65;2.40;;;44.20;38.00;;;;;;5094416;28;20028;-90
2021/07/11 08:14:09;;;;;;;3.92;2.60;;;44.20;38.20;;;;;;5085514;28;20032;-91
2021/07/11 08:16:35;;;;;;;3.38;2.35;;;44.40;37.90;;;;;;5082798;28;20130;-93
2021/07/11 08:19:01;;;;;;;3.33;2.40;;;44.60;37.80;;;;;;5083106;28;20508;-93
2021/07/11 08:21:29;;;;;;;5.10;2.60;;;44.80;38.00;;;;;;5078984;28;20036;-92
2021/07/11 08:23:55;;;;;;;4.57;2.53;;;44.80;37.80;;;;;;5082757;28;20028;-91
2021/07/11 08:26:20;;;;;;;3.63;2.63;;;45.00;37.80;;;;;;5083794;28;20108;-93
2021/07/11 08:28:46;;;;;;;2.90;2.40;;;45.10;37.60;;;;;;5079442;28;20593;-91
2021/07/11 08:31:12;;;;;;;4.53;2.55;;;45.40;37.60;;;;;;5077219;28;20032;-91
2021/07/11 08:33:38;;;;;;;4.18;2.40;;;45.50;37.40;;;;;;5079340;28;20139;-91
2021/07/11 08:36:04;;;;;;;4.50;2.67;;;45.60;37.20;;;;;;5081933;28;20101;-92
2021/07/11 08:38:30;;;;;;;3.30;2.42;;;45.20;36.90;;;;;;5078956;28;20039;-90
2021/07/11 08:40:56;;;;;;;2.28;2.10;;;45.30;37.10;;;;;;5085871;28;20066;-91
2021/07/11 08:43:24;;;;;;;2.40;2.20;;;45.50;37.10;;;;;;5080883;28;20477;-92
2021/07/11 08:45:50;;;;;;;2.28;2.17;;;45.70;36.60;;;;;;5083184;28;20028;-93
2021/07/11 08:48:16;;;;;;;2.38;2.17;;;46.00;36.30;;;;;;5081621;28;20451;-92
2021/07/11 08:50:42;;;;;;;3.67;2.60;;;46.10;36.10;;;;;;5084250;28;20063;-91
2021/07/11 08:53:15;;;;;;;2.67;2.20;;;46.20;36.10;;;;;;5082836;28;20065;-92
2021/07/11 08:55:42;;;;;;;5.78;2.50;;;46.30;35.70;;;;;;5082004;28;20047;-93
2021/07/11 08:58:12;;;;;;;2.78;2.42;;;46.40;35.70;;;;;;5082830;28;20039;-92
2021/07/11 09:00:42;;;;;;;4.30;2.30;;;46.50;35.50;;;;;;5084925;28;20071;-91
2021/07/11 09:03:08;;;;;;;5.13;2.25;;;46.40;35.40;;;;;;5092454;28;20028;-89
2021/07/11 09:05:42;;;;;;;2.17;2.08;;;46.50;34.80;;;;;;5089917;28;20044;-92
2021/07/11 09:08:14;;;;;;;3.17;2.38;;;46.80;34.30;;;;;;5081702;28;20098;-92
2021/07/11 09:10:47;;;;;;;2.78;2.20;;;46.80;33.40;;;;;;5080897;28;20040;-91
2021/07/11 09:13:15;;;;;;;2.33;2.10;;;47.00;33.90;;;;;;5079662;28;20036;-92
2021/07/11 09:15:45;;;;;;;2.15;2.05;;;47.40;33.70;;;;;;5090843;28;20052;-93
2021/07/11 09:18:12;;;;;;;2.40;2.20;;;47.70;33.40;;;;;;5085243;28;20028;-92
2021/07/11 09:20:50;;;;;;;3.78;2.30;;;48.00;33.30;;;;;;5092809;28;20058;-90
2021/07/11 09:23:17;;;;;;;4.15;2.13;;;48.20;33.10;;;;;;5094056;28;20046;-91
2021/07/11 09:25:43;;;;;;;3.63;2.30;;;48.30;33.20;;;;;;5091056;28;20032;-93
2021/07/11 09:28:12;;;;;;;4.47;2.20;;;48.40;33.00;;;;;;5078406;28;20051;-91
2021/07/11 09:30:40;;;;;;;2.40;2.20;;;48.20;32.80;;;;;;5079709;28;20036;-91
2021/07/11 09:33:17;;;;;;;5.38;2.47;;;48.10;32.90;;;;;;5086817;28;20039;-92
2021/07/11 09:35:43;;;;;;;2.45;2.25;;;48.20;33.00;;;;;;5082861;28;20492;-91
2021/07/11 09:38:09;;;;;;;3.60;2.38;;;48.40;32.50;;;;;;5081402;28;20073;-92
2021/07/11 09:40:35;;;;;;;5.68;2.30;;;48.60;32.30;;;;;;5091917;28;20074;-93
2021/07/11 09:43:01;;;;;;;2.90;2.30;;;48.80;32.20;;;;;;5087556;28;20036;-91
2021/07/11 09:45:28;;;;;;;2.60;2.40;;;48.70;31.80;;;;;;5086402;28;20150;-91
2021/07/11 09:48:04;;;;;;;4.00;2.30;;;48.10;31.70;;;;;;5098682;28;20027;-90
2021/07/11 09:50:30;;;;;;;2.90;2.50;;;47.90;31.30;;;;;;5081313;28;20036;-92
2021/07/11 09:52:58;;;;;;;5.63;2.30;;;47.20;31.90;;;;;;5081842;28;20441;-92
2021/07/11 09:55:30;;;;;;;4.15;2.30;;;47.00;32.20;;;;;;5080318;28;20066;-91
2021/07/11 09:58:11;;;;;;;2.20;1.98;;;47.00;32.20;;;;;;5080125;28;20363;-91
2021/07/11 10:00:40;;;;;;;2.53;2.30;;;47.30;32.10;;;;;;5080709;28;20074;-90
2021/07/11 10:03:06;;;;;;;3.33;2.60;;;47.30;31.90;;;;;;5100428;28;20028;-92
2021/07/11 10:05:34;;;;;;;4.75;2.33;;;47.40;31.80;;;;;;5083112;28;20040;-92
2021/07/11 10:08:00;;;;;;;2.60;2.40;;;47.40;31.80;;;;;;5081266;28;20036;-90
2021/07/11 10:10:28;;;;;;;2.60;2.40;;;47.70;31.70;;;;;;5082015;28;20397;-90
2021/07/11 10:12:56;;;;;;;4.22;2.40;;;47.80;31.80;;;;;;5080220;28;20039;-91
2021/07/11 10:15:25;;;;;;;2.42;2.22;;;48.10;31.80;;;;;;5082671;28;20074;-90
2021/07/11 10:18:06;;;;;;;4.35;2.25;;;48.50;31.90;;;;;;5088962;28;20489;-90
2021/07/11 10:20:38;;;;;;;2.60;2.40;;;48.80;31.50;;;;;;5081039;28;20055;-89
2021/07/11 10:23:05;;;;;;;2.58;2.38;;;49.10;31.40;;;;;;5080237;28;20028;-89
2021/07/11 10:25:33;;;;;;;4.22;2.78;;;49.10;31.10;;;;;;5080192;28;20584;-89
2021/07/11 10:28:15;;;;;;;2.90;2.40;;;49.00;31.10;;;;;;5081975;28;20155;-91
2021/07/11 10:30:43;;;;;;;2.50;2.30;;;48.90;31.10;;;;;;5096461;28;20032;-88
2021/07/11 10:33:15;;;;;;;2.55;2.30;;;48.90;31.30;;;;;;5094983;28;20060;-88
2021/07/11 10:35:55;;;;;;;2.90;2.63;;;49.10;31.60;;;;;;5081972;28;20037;-90
2021/07/11 10:38:51;;;;;;;4.13;2.38;;;49.40;30.90;;;;;;5083152;28;20056;-91
2021/07/11 10:41:21;;;;;;;2.85;2.40;;;49.30;30.50;;;;;;5083399;28;20058;-91
2021/07/11 10:44:08;;;;;;;2.40;2.20;;;49.60;31.00;;;;;;5085069;28;20062;-90
2021/07/11 10:46:45;;;;;;;2.50;2.22;;;49.70;30.70;;;;;;5082666;28;20062;-90
2021/07/11 10:49:20;;;;;;;2.95;2.75;;;49.90;30.90;;;;;;5080685;28;20032;-90
2021/07/11 10:51:50;;;;;;;3.60;2.65;;;50.20;30.80;;;;;;5101699;28;20028;-94
2021/07/11 10:54:29;;;;;;;0.20;0.20;;;50.20;30.10;;;;;;5083151;28;20036;-90
2021/07/11 10:57:17;;;;;;;0.20;0.20;;;49.50;29.90;;;;;;5086844;28;20047;-92
2021/07/11 10:59:47;;;;;;;0.25;0.25;;;48.90;30.60;;;;;;5084272;28;20112;-93
2021/07/11 11:02:15;;;;;;;0.20;0.20;;;48.90;30.90;;;;;;5069070;28;20032;-91
2021/07/11 11:04:46;;;;;;;0.20;0.20;;;49.10;30.90;;;;;;5092640;28;20016;-90
2021/07/11 11:07:18;;;;;;;0.20;0.20;;;49.00;30.60;;;;;;5097145;28;20047;-90
2021/07/11 11:09:51;;;;;;;0.20;0.20;;;49.00;30.60;;;;;;5094729;28;20032;-91
2021/07/11 11:12:24;;;;;;;0.20;0.20;;;49.20;30.60;;;;;;5092301;28;20078;-91
2021/07/11 11:14:52;;;;;;;0.22;0.22;;;49.60;30.60;;;;;;5088991;28;20104;-91
2021/07/11 11:17:35;;;;;;;0.30;0.30;;;50.00;30.50;;;;;;5087431;28;20040;-90
2021/07/11 11:20:05;;;;;;;0.30;0.30;;;50.50;30.10;;;;;;5101929;28;20393;-88
2021/07/11 11:22:31;;;;;;;0.30;0.30;;;50.60;30.30;;;;;;5100696;28;20461;-89
2021/07/11 11:24:58;;;;;;;0.30;0.30;;;50.30;30.00;;;;;;5083568;28;20036;-92
2021/07/11 11:27:38;;;;;;;0.30;0.30;;;50.40;30.20;;;;;;5086118;28;20033;-91
2021/07/11 11:30:15;;;;;;;0.30;0.30;;;50.60;29.60;;;;;;5081168;28;20506;-91
2021/07/11 11:32:41;;;;;;;0.30;0.30;;;51.00;29.80;;;;;;5081778;28;20098;-89
2021/07/11 11:35:08;;;;;;;0.30;0.30;;;51.10;29.90;;;;;;5081671;28;20114;-91
2021/07/11 11:37:38;;;;;;;0.30;0.30;;;50.70;29.90;;;;;;5086570;28;20071;-90
2021/07/11 11:40:09;;;;;;;0.30;0.30;;;50.70;30.00;;;;;;5084732;28;20048;-92
2021/07/11 11:42:36;;;;;;;;;;;50.70;30.00;;;;;;5084154;28;20056;-90
2021/07/11 11:45:08;;;;;;;0.30;0.30;;;50.60;29.90;;;;;;5086503;28;19939;-90
2021/07/11 11:47:37;;;;;;;0.35;0.35;;;50.70;29.90;;;;;;5096503;28;20020;-90
2021/07/11 11:50:10;;;;;;;0.40;0.40;;;51.00;30.60;;;;;;5086125;28;20040;-89
2021/07/11 11:52:36;;;;;;;0.40;0.40;;;51.30;29.90;;;;;;5101260;28;20067;-91
2021/07/11 11:55:06;;;;;;;0.40;0.40;;;51.50;29.80;;;;;;5082101;28;20413;-91
2021/07/11 11:57:32;;;;;;;0.30;0.30;;;51.50;29.60;;;;;;5083481;28;20044;-91
2021/07/11 11:59:59;;;;;;;0.30;0.30;;;51.30;29.60;;;;;;5086389;28;20047;-90
2021/07/11 12:02:25;;;;;;;0.30;0.30;;;50.70;29.50;;;;;;5083087;28;20032;-90
2021/07/11 12:04:51;;;;;;;0.22;0.22;;;50.50;29.60;;;;;;5083302;28;20081;-91
2021/07/11 12:07:17;;;;;;;0.20;0.20;;;49.80;29.80;;;;;;5082064;28;20127;-90
2021/07/11 12:09:43;;;;;;;0.30;0.30;;;49.20;30.10;;;;;;5099262;28;20032;-91
2021/07/11 12:12:10;;;;;;;0.20;0.20;;;49.20;30.20;;;;;;5082730;28;20210;-90
2021/07/11 12:14:41;;;;;;;0.10;0.10;;;49.30;30.20;;;;;;5081203;28;20036;-90
2021/07/11 12:17:16;;;;;;;0.20;0.20;;;48.80;30.10;;;;;;5082448;28;20036;-89
2021/07/11 12:19:53;;;;;;;0.10;0.10;;;47.80;30.40;;;;;;5102021;28;20077;-91
2021/07/11 12:22:29;;;;;;;0.10;0.10;;;47.20;31.10;;;;;;5081311;28;20040;-89
2021/07/11 12:25:18;;;;;;;0.10;0.10;;;47.20;31.30;;;;;;5085127;28;20050;-91
2021/07/11 12:27:49;;;;;;;0.10;0.10;;;47.50;31.30;;;;;;5081201;28;20044;-91
2021/07/11 12:30:19;;;;;;;0.10;0.10;;;47.80;31.30;;;;;;5081252;28;20039;-88
2021/07/11 12:32:47;;;;;;;0.10;0.10;;;47.90;31.20;;;;;;5079353;28;20028;-91
2021/07/11 12:35:14;;;;;;;0.20;0.20;;;48.30;31.20;;;;;;5081068;28;20038;-90
2021/07/11 12:38:00;;;;;;;0.13;0.13;;;48.60;30.90;;;;;;5077879;28;20035;-91
2021/07/11 12:40:29;;;;;;;0.20;0.20;;;49.00;30.90;;;;;;5081044;28;20040;-90
2021/07/11 12:43:17;;;;;;;0.20;0.20;;;48.90;30.70;;;;;;5082709;28;20067;-91
2021/07/11 12:45:44;;;;;;;0.20;0.20;;;48.70;30.50;;;;;;5082390;28;20554;-90
2021/07/11 12:48:10;;;;;;;0.20;0.20;;;48.40;30.80;;;;;;5078148;28;20036;-91
2021/07/11 12:50:41;;;;;;;0.20;0.20;;;48.40;31.00;;;;;;5079493;28;20135;-89
2021/07/11 12:53:08;;;;;;;0.15;0.15;;;48.60;31.10;;;;;;5084239;28;20047;-92